createdAt,value
2019-04-28T00:03:35.551Z,16.63
2019-04-28T00:08:42.740Z,16.27
2019-04-28T00:13:47.523Z,17.13
2019-04-28T00:18:52.610Z,18.77
2019-04-28T00:24:08.506Z,15.23
2019-04-28T00:29:13.623Z,16.30
2019-04-28T00:34:18.851Z,16.83
2019-04-28T00:39:24.013Z,16.10
2019-04-28T00:44:29.199Z,14.97
2019-04-28T00:49:46.584Z,15.07
2019-04-28T00:54:52.939Z,16.50
2019-04-28T00:59:58.886Z,15.83
2019-04-28T01:05:05.396Z,17.20
2019-04-28T01:10:11.562Z,18.70
2019-04-28T01:15:20.191Z,15.83
2019-04-28T01:20:26.150Z,14.17
2019-04-28T01:25:31.691Z,15.80
2019-04-28T01:30:57.085Z,15.67
2019-04-28T01:36:02.280Z,15.90
2019-04-28T01:41:07.372Z,13.00
2019-04-28T01:46:12.435Z,18.87
2019-04-28T01:51:19.059Z,14.23
2019-04-28T01:56:24.059Z,16.17
2019-04-28T02:01:30.155Z,15.60
2019-04-28T02:06:35.415Z,15.43
2019-04-28T02:11:41.220Z,14.80
2019-04-28T02:16:46.419Z,14.27
2019-04-28T02:22:05.111Z,14.30
2019-04-28T02:27:10.638Z,15.80
2019-04-28T02:32:15.851Z,16.67
2019-04-28T02:37:20.922Z,15.43
2019-04-28T02:42:25.956Z,14.03
2019-04-28T02:47:33.988Z,14.93
2019-04-28T02:52:55.689Z,15.20
2019-04-28T02:58:01.581Z,16.67
2019-04-28T03:03:06.822Z,14.33
2019-04-28T03:08:11.844Z,14.60
2019-04-28T03:13:16.935Z,16.13
2019-04-28T03:18:21.959Z,13.70
2019-04-28T03:23:27.122Z,18.43
2019-04-28T03:28:45.755Z,14.60
2019-04-28T03:33:55.643Z,15.43
2019-04-28T03:38:57.490Z,13.77
2019-04-28T03:44:02.780Z,13.47
2019-04-28T03:49:10.810Z,15.23
2019-04-28T03:54:15.951Z,15.17
2019-04-28T03:59:21.301Z,18.00
2019-04-28T04:04:26.360Z,13.90
2019-04-28T04:09:32.972Z,13.63
2019-04-28T04:14:41.206Z,14.33
2019-04-28T04:19:46.491Z,14.87
2019-04-28T04:24:52.590Z,19.70
2019-04-28T04:29:57.503Z,15.83
2019-04-28T04:35:02.563Z,18.73
2019-04-28T04:40:07.682Z,19.53
2019-04-28T04:45:12.696Z,19.47
2019-04-28T04:50:17.748Z,18.97
2019-04-28T04:55:22.824Z,20.17
2019-04-28T05:00:40.377Z,20.17
2019-04-28T05:05:45.483Z,15.93
2019-04-28T05:10:50.532Z,16.63
2019-04-28T05:15:55.471Z,15.97
2019-04-28T05:21:00.460Z,16.43
2019-04-28T05:26:07.911Z,15.23
2019-04-28T05:31:19.834Z,14.50
2019-04-28T05:36:20.403Z,13.60
2019-04-28T05:41:25.523Z,12.33
2019-04-28T05:46:30.480Z,12.27
2019-04-28T05:51:37.106Z,11.77
2019-04-28T05:56:43.738Z,10.67
2019-04-28T06:02:00.625Z,10.60
2019-04-28T06:07:07.396Z,8.37
2019-04-28T06:12:13.990Z,11.20
2019-04-28T06:17:20.662Z,10.90
2019-04-28T06:22:25.827Z,8.03
2019-04-28T06:27:32.694Z,9.47
2019-04-28T06:32:37.528Z,10.23
2019-04-28T06:37:42.628Z,7.00
2019-04-28T06:42:47.640Z,8.40
2019-04-28T06:47:52.688Z,7.63
2019-04-28T06:52:57.713Z,8.77
2019-04-28T06:58:02.768Z,7.33
2019-04-28T07:03:12.994Z,7.07
2019-04-28T07:08:14.482Z,6.50
2019-04-28T07:13:21.351Z,6.20
2019-04-28T07:18:28.031Z,8.40
2019-04-28T07:23:34.388Z,7.03
2019-04-28T07:28:39.372Z,6.97
2019-04-28T07:33:44.388Z,5.73
2019-04-28T07:38:49.355Z,4.87
2019-04-28T07:43:54.467Z,6.57
2019-04-28T07:48:59.512Z,6.43
2019-04-28T07:54:06.231Z,5.27
2019-04-28T07:59:11.275Z,6.63
2019-04-28T08:04:16.255Z,6.80
2019-04-28T08:09:21.366Z,5.27
2019-04-28T08:14:27.555Z,6.50
2019-04-28T08:19:32.535Z,4.37
2019-04-28T08:24:37.655Z,8.20
2019-04-28T08:29:42.711Z,7.67
2019-04-28T08:34:47.756Z,7.00
2019-04-28T08:39:52.791Z,5.23
2019-04-28T08:44:57.771Z,7.40
2019-04-28T08:50:02.883Z,7.40
2019-04-28T08:55:08.063Z,8.03
2019-04-28T09:00:16.306Z,9.00
2019-04-28T09:05:21.422Z,10.57
2019-04-28T09:10:26.474Z,7.93
2019-04-28T09:15:31.491Z,8.57
2019-04-28T09:20:36.611Z,8.23
2019-04-28T09:25:41.584Z,8.40
2019-04-28T09:30:47.159Z,9.73
2019-04-28T09:35:52.283Z,9.67
2019-04-28T09:40:57.399Z,8.23
2019-04-28T09:46:04.102Z,9.83
2019-04-28T09:51:09.259Z,7.83
2019-04-28T09:56:14.375Z,6.57
2019-04-28T10:01:19.491Z,7.33
2019-04-28T10:06:24.575Z,8.53
2019-04-28T10:11:30.590Z,10.37
2019-04-28T10:16:36.046Z,6.33
2019-04-28T10:21:41.162Z,9.93
2019-04-28T10:26:46.467Z,6.57
2019-04-28T10:31:51.475Z,9.27
2019-04-28T10:36:56.428Z,5.80
2019-04-28T10:42:01.623Z,8.10
2019-04-28T10:47:06.911Z,6.63
2019-04-28T10:52:12.090Z,6.83
2019-04-28T10:57:17.147Z,8.80
2019-04-28T11:02:23.271Z,10.30
2019-04-28T11:07:28.371Z,6.27
2019-04-28T11:12:33.536Z,7.60
2019-04-28T11:17:38.591Z,9.90
2019-04-28T11:22:43.543Z,8.50
2019-04-28T11:27:48.731Z,5.00
2019-04-28T11:32:58.222Z,7.93
2019-04-28T11:38:03.343Z,7.63
2019-04-28T11:43:08.459Z,7.23
2019-04-28T11:48:13.567Z,6.60
2019-04-28T11:53:18.679Z,8.57
2019-04-28T11:58:23.731Z,7.13
2019-04-28T12:03:28.674Z,8.27
2019-04-28T12:08:34.065Z,7.77
2019-04-28T12:13:40.747Z,6.90
2019-04-28T12:18:53.139Z,7.27
2019-04-28T12:23:58.184Z,8.33
2019-04-28T12:29:03.267Z,7.90
2019-04-28T12:34:08.452Z,6.67
2019-04-28T12:39:13.602Z,7.07
2019-04-28T12:44:18.715Z,6.73
2019-04-28T12:49:34.287Z,9.33
2019-04-28T12:54:40.385Z,7.53
2019-04-28T12:59:46.979Z,7.07
2019-04-28T13:04:59.716Z,5.00
2019-04-28T13:10:06.940Z,6.13
2019-04-28T13:15:12.202Z,4.43
2019-04-28T13:20:17.599Z,7.40
2019-04-28T13:25:22.661Z,8.27
2019-04-28T13:30:27.755Z,8.83
2019-04-28T13:35:34.023Z,6.23
2019-04-28T13:40:40.950Z,4.23
2019-04-28T13:45:46.000Z,7.30
2019-04-28T13:50:51.051Z,4.83
2019-04-28T13:55:57.787Z,7.27
2019-04-28T14:01:13.539Z,7.77
2019-04-28T14:06:28.606Z,7.23
2019-04-28T14:11:29.422Z,6.63
2019-04-28T14:16:34.539Z,7.53
2019-04-28T14:21:39.778Z,6.90
2019-04-28T14:26:44.904Z,6.23
2019-04-28T14:31:50.035Z,8.70
2019-04-28T14:36:55.094Z,6.67
2019-04-28T14:42:00.168Z,9.83
2019-04-28T14:47:05.311Z,9.13
2019-04-28T14:52:10.351Z,8.47
2019-04-28T14:57:15.411Z,11.67
2019-04-28T15:02:28.399Z,10.73
2019-04-28T15:07:50.245Z,12.07
2019-04-28T15:12:55.411Z,6.30
2019-04-28T15:18:00.519Z,8.43
2019-04-28T15:23:05.479Z,8.60
2019-04-28T15:28:10.567Z,6.67
2019-04-28T15:33:15.595Z,8.70
2019-04-28T15:38:20.569Z,8.40
2019-04-28T15:43:25.682Z,9.90
2019-04-28T15:48:31.247Z,8.20
2019-04-28T15:53:36.771Z,7.63
2019-04-28T15:58:41.876Z,7.33
2019-04-28T16:03:47.262Z,7.93
2019-04-28T16:08:52.275Z,8.73
2019-04-28T16:13:57.222Z,7.63
2019-04-28T16:19:02.227Z,7.50
2019-04-28T16:24:07.378Z,7.80
2019-04-28T16:29:12.425Z,7.60
2019-04-28T16:34:17.409Z,9.17
2019-04-28T16:39:22.464Z,9.27
2019-04-28T16:44:27.632Z,8.07
2019-04-28T16:49:32.612Z,8.30
2019-04-28T16:54:37.732Z,6.63
2019-04-28T16:59:50.598Z,8.87
2019-04-28T17:04:55.687Z,7.40
2019-04-28T17:10:01.890Z,8.73
2019-04-28T17:15:08.616Z,10.60
2019-04-28T17:20:14.016Z,7.80
2019-04-28T17:25:19.371Z,9.63
2019-04-28T17:30:24.791Z,8.73
2019-04-28T17:35:29.942Z,9.57
2019-04-28T17:40:35.298Z,8.40
2019-04-28T17:45:40.462Z,8.67
2019-04-28T17:50:45.654Z,9.33
2019-04-28T17:55:50.874Z,7.97
2019-04-28T18:00:57.617Z,9.17
2019-04-28T18:06:18.153Z,8.93
2019-04-28T18:11:24.508Z,10.93
2019-04-28T18:16:34.371Z,11.00
2019-04-28T18:21:39.599Z,13.07
2019-04-28T18:26:44.743Z,12.67
2019-04-28T18:32:07.631Z,11.90
2019-04-28T18:37:20.336Z,12.07
2019-04-28T18:42:42.210Z,12.17
2019-04-28T18:47:47.391Z,12.70
2019-04-28T18:52:52.477Z,11.80
2019-04-28T18:57:57.420Z,12.80
2019-04-28T19:03:02.667Z,10.20
2019-04-28T19:08:25.443Z,15.07
2019-04-28T19:13:32.190Z,12.30
2019-04-28T19:18:38.955Z,11.70
2019-04-28T19:23:44.288Z,13.20
2019-04-28T19:28:50.321Z,12.07
2019-04-28T19:33:55.511Z,12.27
2019-04-28T19:39:03.474Z,10.47
2019-04-28T19:44:08.939Z,9.90
2019-04-28T19:49:14.071Z,12.07
2019-04-28T19:54:20.863Z,13.00
2019-04-28T19:59:33.715Z,12.30
2019-04-28T20:04:38.752Z,13.83
2019-04-28T20:09:43.736Z,12.03
2019-04-28T20:14:48.720Z,11.37
2019-04-28T20:19:53.774Z,13.63
2019-04-28T20:25:00.071Z,12.83
2019-04-28T20:30:08.643Z,11.77
2019-04-28T20:35:16.271Z,13.93
2019-04-28T20:40:23.075Z,12.63
2019-04-28T20:45:28.284Z,13.27
2019-04-28T20:50:33.412Z,14.67
2019-04-28T20:55:38.577Z,9.50
2019-04-28T21:00:44.195Z,13.50
2019-04-28T21:05:49.312Z,8.73
2019-04-28T21:10:54.508Z,14.87
2019-04-28T21:15:59.638Z,16.90
2019-04-28T21:21:04.836Z,14.60
2019-04-28T21:26:09.805Z,14.23
2019-04-28T21:31:15.920Z,13.97
2019-04-28T21:36:21.052Z,16.00
2019-04-28T21:41:26.171Z,14.87
2019-04-28T21:46:32.878Z,13.20
2019-04-28T21:51:37.868Z,12.63
2019-04-28T21:56:42.935Z,13.23
2019-04-28T22:01:48.127Z,15.93
2019-04-28T22:06:54.056Z,13.53
2019-04-28T22:11:59.182Z,12.77
2019-04-28T22:17:04.237Z,12.83
2019-04-28T22:22:09.299Z,13.90
2019-04-28T22:27:14.867Z,16.37
2019-04-28T22:32:19.820Z,16.00
2019-04-28T22:37:24.839Z,14.00
2019-04-28T22:42:29.892Z,16.47
2019-04-28T22:47:34.946Z,13.97
2019-04-28T22:52:39.923Z,17.47
2019-04-28T22:57:52.723Z,13.23
2019-04-28T23:02:57.848Z,12.77
2019-04-28T23:08:02.980Z,16.57
2019-04-28T23:13:08.082Z,12.97
2019-04-28T23:18:13.484Z,13.67
2019-04-28T23:23:18.602Z,14.07
2019-04-28T23:28:23.671Z,13.60
2019-04-28T23:33:28.628Z,12.43
2019-04-28T23:38:33.652Z,12.83
2019-04-28T23:43:38.714Z,10.87
2019-04-28T23:48:43.790Z,14.43
2019-04-28T23:53:59.387Z,6.27
2019-04-28T23:59:04.440Z,10.67
